Time,TemperatureF,DewpointF,PressureIn,WindDirection,WindDirectionDegrees,WindSpeedMPH,WindSpeedGustMPH,Humidity,HourlyPrecipIn,Conditions,Clouds,dailyrainin,SoftwareType,DateUTC
2013-03-11 00:08:00,46.4,19.0,30.06,WSW,256,16.0,28.0,34,0.00,,,0.00,weatherlink.com 1.10,2013-03-11 06:08:00,
2013-03-11 00:23:00,46.5,19.0,30.05,WSW,244,17.0,26.0,34,0.00,,,0.00,weatherlink.com 1.10,2013-03-11 06:23:00,
2013-03-11 00:38:00,46.7,20.0,30.05,SW,225,8.0,28.0,34,0.00,,,0.00,weatherlink.com 1.10,2013-03-11 06:38:00,
2013-03-11 00:53:00,46.5,19.0,30.04,WSW,240,11.0,22.0,34,0.00,,,0.00,weatherlink.com 1.10,2013-03-11 06:53:00,
2013-03-11 01:08:00,46.6,19.0,30.04,WSW,249,10.0,18.0,34,0.00,,,0.00,weatherlink.com 1.10,2013-03-11 07:08:00,
2013-03-11 01:23:00,47.1,19.0,30.04,West,273,8.0,14.0,33,0.00,,,0.00,weatherlink.com 1.10,2013-03-11 07:23:00,
2013-03-11 01:38:00,46.6,19.0,30.04,WSW,252,13.0,15.0,34,0.00,,,0.00,weatherlink.com 1.10,2013-03-11 07:38:00,
2013-03-11 01:53:00,46.7,20.0,30.05,West,269,13.0,16.0,34,0.00,,,0.00,weatherlink.com 1.10,2013-03-11 07:53:00,
2013-03-11 02:08:00,45.8,20.0,30.04,South,189,8.0,19.0,36,0.00,,,0.00,weatherlink.com 1.10,2013-03-11 08:08:00,
2013-03-11 02:23:00,45.0,21.0,30.04,SW,214,11.0,15.0,38,0.00,,,0.00,weatherlink.com 1.10,2013-03-11 08:23:00,
2013-03-11 02:38:00,45.3,20.0,30.04,SW,219,14.0,23.0,37,0.00,,,0.00,weatherlink.com 1.10,2013-03-11 08:38:00,
2013-03-11 02:53:00,45.2,21.0,30.04,West,274,16.0,27.0,38,0.00,,,0.00,weatherlink.com 1.10,2013-03-11 08:53:00,
2013-03-11 03:08:00,42.1,18.0,30.03,NW,306,0.0,7.0,38,0.00,,,0.00,weatherlink.com 1.10,2013-03-11 09:08:00,
2013-03-11 03:23:00,41.0,18.0,30.02,NW,306,5.0,7.0,40,0.00,,,0.00,weatherlink.com 1.10,2013-03-11 09:23:00,
2013-03-11 03:38:00,42.3,22.0,30.02,WSW,252,9.0,15.0,44,0.00,,,0.00,weatherlink.com 1.10,2013-03-11 09:38:00,
2013-03-11 03:53:00,42.9,23.0,30.02,WSW,248,8.0,17.0,45,0.00,,,0.00,weatherlink.com 1.10,2013-03-11 09:53:00,
2013-03-11 04:08:00,37.3,18.0,30.03,ENE,57,8.0,13.0,46,0.00,,,0.00,weatherlink.com 1.10,2013-03-11 10:08:00,
2013-03-11 04:23:00,33.9,18.0,30.02,ENE,57,2.0,6.0,52,0.00,,,0.00,weatherlink.com 1.10,2013-03-11 10:23:00,
2013-03-11 04:38:00,34.2,18.0,30.02,NE,51,6.0,7.0,52,0.00,,,0.00,weatherlink.com 1.10,2013-03-11 10:38:00,
2013-03-11 04:53:00,36.7,21.0,30.02,NE,49,2.0,6.0,53,0.00,,,0.00,weatherlink.com 1.10,2013-03-11 10:53:00,
2013-03-11 05:08:00,39.5,23.0,30.01,SSE,160,5.0,9.0,51,0.00,,,0.00,weatherlink.com 1.10,2013-03-11 11:08:00,
2013-03-11 05:23:00,39.2,26.0,30.01,SSE,160,0.0,4.0,59,0.00,,,0.00,weatherlink.com 1.10,2013-03-11 11:23:00,
2013-03-11 05:38:00,40.3,25.0,30.01,SSE,160,4.0,4.0,55,0.00,,,0.00,weatherlink.com 1.10,2013-03-11 11:38:00,
2013-03-11 05:53:00,39.5,23.0,30.02,SSE,160,4.0,4.0,53,0.00,,,0.00,weatherlink.com 1.10,2013-03-11 11:53:00,
2013-03-11 06:24:00,36.3,20.0,30.02,SSE,150,5.0,5.0,53,0.00,,,0.00,weatherlink.com 1.10,2013-03-11 12:24:00,
2013-03-11 06:39:00,35.4,20.0,30.02,SSE,150,4.0,5.0,54,0.00,,,0.00,weatherlink.com 1.10,2013-03-11 12:39:00,
2013-03-11 06:54:00,36.1,21.0,30.03,SSE,150,5.0,6.0,55,0.00,,,0.00,weatherlink.com 1.10,2013-03-11 12:54:00,
2013-03-11 07:09:00,38.1,22.0,30.02,SSE,150,0.0,6.0,52,0.00,,,0.00,weatherlink.com 1.10,2013-03-11 13:09:00,
2013-03-11 07:24:00,38.2,22.0,30.02,SSE,150,2.0,4.0,52,0.00,,,0.00,weatherlink.com 1.10,2013-03-11 13:24:00,
2013-03-11 07:39:00,37.7,23.0,30.02,SSE,150,1.0,4.0,55,0.00,,,0.00,weatherlink.com 1.10,2013-03-11 13:39:00,
2013-03-11 07:54:00,37.0,22.0,30.02,SSE,150,4.0,6.0,54,0.00,,,0.00,weatherlink.com 1.10,2013-03-11 13:54:00,
2013-03-11 08:09:00,36.4,22.0,30.02,SSE,150,5.0,7.0,57,0.00,,,0.00,weatherlink.com 1.10,2013-03-11 14:09:00,
2013-03-11 08:24:00,36.9,23.0,30.02,SSE,150,5.0,6.0,58,0.00,,,0.00,weatherlink.com 1.10,2013-03-11 14:24:00,
2013-03-11 08:39:00,37.1,24.0,30.01,SSE,150,4.0,6.0,59,0.00,,,0.00,weatherlink.com 1.10,2013-03-11 14:39:00,
2013-03-11 08:54:00,37.6,24.0,30.02,SSE,150,1.0,6.0,59,0.00,,,0.00,weatherlink.com 1.10,2013-03-11 14:54:00,
2013-03-11 09:09:00,37.3,24.0,30.02,SSE,150,1.0,5.0,58,0.00,,,0.00,weatherlink.com 1.10,2013-03-11 15:09:00,
2013-03-11 09:24:00,37.1,23.0,30.02,SSE,150,0.0,2.0,58,0.00,,,0.00,weatherlink.com 1.10,2013-03-11 15:24:00,
2013-03-11 09:39:00,37.4,24.0,30.02,SSE,150,2.0,5.0,58,0.00,,,0.00,weatherlink.com 1.10,2013-03-11 15:39:00,
2013-03-11 09:54:00,38.0,24.0,30.03,SSE,150,0.0,1.0,58,0.00,,,0.00,weatherlink.com 1.10,2013-03-11 15:54:00,
2013-03-11 10:09:00,38.4,24.0,30.02,SSE,150,0.0,2.0,57,0.00,,,0.00,weatherlink.com 1.10,2013-03-11 16:09:00,
2013-03-11 10:24:00,39.2,25.0,30.02,SSE,150,0.0,2.0,56,0.00,,,0.00,weatherlink.com 1.10,2013-03-11 16:24:00,
2013-03-11 10:39:00,39.3,24.0,30.02,SSE,150,2.0,6.0,54,0.00,,,0.00,weatherlink.com 1.10,2013-03-11 16:39:00,
2013-03-11 10:54:00,40.0,24.0,30.02,SE,144,5.0,7.0,53,0.00,,,0.00,weatherlink.com 1.10,2013-03-11 16:54:00,
2013-03-11 11:09:00,40.3,24.0,30.02,SE,144,1.0,6.0,52,0.00,,,0.00,weatherlink.com 1.10,2013-03-11 17:09:00,
2013-03-11 11:24:00,40.5,23.0,30.02,SE,144,0.0,4.0,51,0.00,,,0.00,weatherlink.com 1.10,2013-03-11 17:24:00,
2013-03-11 11:39:00,40.9,24.0,30.01,SE,144,3.0,5.0,51,0.00,,,0.00,weatherlink.com 1.10,2013-03-11 17:39:00,
2013-03-11 11:54:00,42.7,25.0,30.01,SSW,193,1.0,9.0,49,0.00,,,0.00,weatherlink.com 1.10,2013-03-11 17:54:00,
2013-03-11 12:09:00,44.1,24.0,30.00,SSW,203,7.0,12.0,46,0.00,,,0.00,weatherlink.com 1.10,2013-03-11 18:09:00,
2013-03-11 12:24:00,44.0,24.0,29.99,South,182,9.0,15.0,45,0.00,,,0.00,weatherlink.com 1.10,2013-03-11 18:24:00,
2013-03-11 12:39:00,44.5,21.0,29.98,SSW,199,4.0,13.0,40,0.00,,,0.00,weatherlink.com 1.10,2013-03-11 18:39:00,
2013-03-11 12:54:00,47.0,16.0,29.97,WSW,252,9.0,13.0,29,0.00,,,0.00,weatherlink.com 1.10,2013-03-11 18:54:00,
2013-03-11 13:09:00,49.0,19.0,29.97,NE,34,16.0,21.0,31,0.00,,,0.00,weatherlink.com 1.10,2013-03-11 19:09:00,
2013-03-11 13:24:00,46.3,18.0,29.97,NE,52,12.0,21.0,33,0.00,,,0.00,weatherlink.com 1.10,2013-03-11 19:24:00,
2013-03-11 13:39:00,47.4,17.0,29.98,NNE,28,14.0,21.0,30,0.00,,,0.00,weatherlink.com 1.10,2013-03-11 19:39:00,
2013-03-11 13:54:00,48.6,16.0,29.97,NNE,29,13.0,17.0,27,0.00,,,0.00,weatherlink.com 1.10,2013-03-11 19:54:00,
2013-03-11 14:09:00,49.7,9.0,29.97,West,260,14.0,19.0,19,0.00,,,0.00,weatherlink.com 1.10,2013-03-11 20:09:00,
2013-03-11 14:24:00,50.4,3.0,29.96,West,261,18.0,32.0,14,0.00,,,0.00,weatherlink.com 1.10,2013-03-11 20:24:00,
2013-03-11 14:39:00,50.3,4.0,29.96,West,280,27.0,32.0,15,0.00,,,0.00,weatherlink.com 1.10,2013-03-11 20:39:00,
2013-03-11 14:54:00,50.8,3.0,29.97,West,281,24.0,29.0,14,0.00,,,0.00,weatherlink.com 1.10,2013-03-11 20:54:00,
2013-03-11 15:09:00,50.6,1.0,29.99,North,355,8.0,17.0,13,0.00,,,0.00,weatherlink.com 1.10,2013-03-11 21:09:00,
2013-03-11 15:24:00,45.9,20.0,29.97,NE,36,29.0,32.0,35,0.00,,,0.00,weatherlink.com 1.10,2013-03-11 21:24:00,
2013-03-11 15:39:00,45.8,20.0,29.98,NNE,30,22.0,32.0,36,0.00,,,0.00,weatherlink.com 1.10,2013-03-11 21:39:00,
2013-03-11 15:54:00,45.0,20.0,29.99,NE,35,12.0,33.0,37,0.00,,,0.00,weatherlink.com 1.10,2013-03-11 21:54:00,
2013-03-11 16:09:00,44.1,20.0,30.01,North,355,28.0,34.0,39,0.00,,,0.00,weatherlink.com 1.10,2013-03-11 22:09:00,
2013-03-11 16:24:00,42.5,20.0,30.01,North,11,33.0,39.0,40,0.00,,,0.00,weatherlink.com 1.10,2013-03-11 22:24:00,
2013-03-11 16:39:00,41.1,22.0,30.01,NNE,17,34.0,38.0,46,0.00,,,0.00,weatherlink.com 1.10,2013-03-11 22:39:00,
2013-03-11 16:54:00,39.7,22.0,30.02,NNE,24,26.0,37.0,50,0.00,,,0.00,weatherlink.com 1.10,2013-03-11 22:54:00,
2013-03-11 17:09:00,36.2,26.0,30.03,NNE,17,34.0,39.0,66,0.00,,,0.00,weatherlink.com 1.10,2013-03-11 23:09:00,
2013-03-11 17:24:00,34.8,27.0,30.04,North,9,32.0,40.0,73,0.00,,,0.00,weatherlink.com 1.10,2013-03-11 23:24:00,
2013-03-11 17:39:00,33.8,27.0,30.04,NNE,24,31.0,34.0,76,0.00,,,0.00,weatherlink.com 1.10,2013-03-11 23:39:00,
2013-03-11 17:55:00,33.0,27.0,30.06,North,10,21.0,34.0,80,0.00,,,0.00,weatherlink.com 1.10,2013-03-11 23:55:00,
2013-03-11 18:10:00,32.6,27.0,30.08,NNE,22,21.0,36.0,81,0.00,,,0.00,weatherlink.com 1.10,2013-03-12 00:10:00,
2013-03-11 18:25:00,32.1,28.0,30.10,NNE,25,22.0,30.0,83,0.00,,,0.00,weatherlink.com 1.10,2013-03-12 00:25:00,
2013-03-11 18:40:00,31.8,27.0,30.12,NNE,19,11.0,24.0,83,0.00,,,0.00,weatherlink.com 1.10,2013-03-12 00:40:00,
2013-03-11 18:55:00,30.8,27.0,30.13,NNE,27,20.0,24.0,85,0.00,,,0.00,weatherlink.com 1.10,2013-03-12 00:55:00,
2013-03-11 19:10:00,30.8,27.0,30.15,NNE,21,20.0,29.0,85,0.00,,,0.00,weatherlink.com 1.10,2013-03-12 01:10:00,
2013-03-11 19:25:00,29.8,27.0,30.16,NNE,23,16.0,23.0,88,0.00,,,0.00,weatherlink.com 1.10,2013-03-12 01:25:00,
2013-03-11 19:40:00,29.1,26.0,30.17,NNE,32,16.0,27.0,89,0.00,,,0.00,weatherlink.com 1.10,2013-03-12 01:40:00,
2013-03-11 19:55:00,28.8,26.0,30.18,NNE,24,19.0,25.0,90,0.00,,,0.00,weatherlink.com 1.10,2013-03-12 01:55:00,
2013-03-11 20:10:00,28.7,26.0,30.18,NNE,16,25.0,29.0,89,0.00,,,0.00,weatherlink.com 1.10,2013-03-12 02:10:00,
2013-03-11 20:25:00,28.8,25.0,30.19,NNE,19,17.0,28.0,87,0.00,,,0.00,weatherlink.com 1.10,2013-03-12 02:25:00,
2013-03-11 20:40:00,28.7,25.0,30.21,NE,34,19.0,28.0,86,0.00,,,0.00,weatherlink.com 1.10,2013-03-12 02:40:00,
2013-03-11 20:55:00,28.0,25.0,30.22,NNE,29,23.0,29.0,89,0.00,,,0.00,weatherlink.com 1.10,2013-03-12 02:55:00,
2013-03-11 21:10:00,27.4,25.0,30.23,NE,40,11.0,29.0,90,0.00,,,0.00,weatherlink.com 1.10,2013-03-12 03:10:00,
2013-03-11 21:25:00,27.1,25.0,30.23,NE,36,16.0,23.0,91,0.00,,,0.00,weatherlink.com 1.10,2013-03-12 03:25:00,
2013-03-11 21:40:00,27.2,25.0,30.23,NE,40,22.0,26.0,90,0.00,,,0.00,weatherlink.com 1.10,2013-03-12 03:40:00,
2013-03-11 21:55:00,26.9,24.0,30.24,NNE,30,22.0,32.0,88,0.00,,,0.00,weatherlink.com 1.10,2013-03-12 03:55:00,
2013-03-11 22:10:00,27.1,24.0,30.26,NNE,19,17.0,22.0,86,0.00,,,0.00,weatherlink.com 1.10,2013-03-12 04:10:00,
2013-03-11 22:26:00,27.0,23.0,30.28,NNE,28,10.0,20.0,84,0.00,,,0.00,weatherlink.com 1.10,2013-03-12 04:26:00,
2013-03-11 22:41:00,26.4,23.0,30.29,NNE,26,21.0,23.0,85,0.00,,,0.00,weatherlink.com 1.10,2013-03-12 04:41:00,
2013-03-11 22:56:00,25.7,23.0,30.30,NE,35,14.0,20.0,88,0.00,,,0.00,weatherlink.com 1.10,2013-03-12 04:56:00,
2013-03-11 23:11:00,25.4,23.0,30.30,NE,42,14.0,19.0,89,0.00,,,0.00,weatherlink.com 1.10,2013-03-12 05:11:00,
2013-03-11 23:26:00,25.2,23.0,30.31,NE,41,14.0,21.0,90,0.00,,,0.00,weatherlink.com 1.10,2013-03-12 05:26:00,
2013-03-11 23:41:00,25.1,22.0,30.32,NE,38,12.0,18.0,89,0.00,,,0.00,weatherlink.com 1.10,2013-03-12 05:41:00,